Tropical Cyclones
[Index]
Main Index Home Page Stock Weather Photos Extreme Storms Discussion Storm News and Storm Chasing Reports Tropical Cyclones / Hurricanes / Typhoons Weather Data and Links Wild Fires / Bushfires Weather Observation Techniques Weather Picture Catalogue Tornado Pictures and Reports Stock Video Footage and DVDs for sale
Season 1995-1996 Tropical Cyclone FRANK Track Map
Season 1995-1996 Summaries: [BoM-AU] [JTWC-AU] [JTWC-SIO] [JTWC-SPAC] [JTWC-SH]
<<- Previous TC | JTWC 1995-1996 Season | Next TC ->>

click for intensity scale information  Lat/long Grid: Show Hide

 Date Labels: Show Hide

Joint Typhoon Warning Centre Cyclone Data

Name: FRANK

06 Dec 1995 00:00 UTC to 14 Dec 1995 00:00 UTC

    date/time    lat    long     hPa   cat  kts
1995-12-06 00   10.3   115.8                  15          
1995-12-06 06   10.7   116.6                  20          
1995-12-06 12   11.2   117.5                  20          
1995-12-06 18   11.6   118.1                  25          
1995-12-07 00   12.0   118.5                  25          
1995-12-07 06   12.5   118.5                  30          
1995-12-07 12   13.0   118.3                  35          
1995-12-07 18   13.5   118.0                  35          
1995-12-08 00   14.0   117.7            1     45          
1995-12-08 06   14.5   117.4            1     45          
1995-12-08 12   15.1   117.1            1     50          
1995-12-08 18   15.8   116.7            2     55          
1995-12-09 00   16.6   116.3            2     65          
1995-12-09 06   17.4   116.0            3     75          
1995-12-09 12   18.0   115.8            3     75          
1995-12-09 18   18.7   115.5            3     75          
1995-12-10 00   19.3   115.1            3     90          
1995-12-10 06   19.9   114.8            4    115          
1995-12-10 12   20.3   114.5            4    115          
1995-12-10 18   20.5   114.3            4    115          
1995-12-11 00   20.8   113.8            4    100          
1995-12-11 06   21.3   113.5            4    100          
1995-12-11 12   21.8   113.3            4    100          
1995-12-11 18   22.4   113.1            3     90          
1995-12-12 00   22.9   113.0            2     70          
1995-12-12 06   23.5   113.0            2     65          
1995-12-12 12   24.2   113.2            2     60          
1995-12-12 18   25.0   113.5            2     55          
1995-12-13 00   25.9   114.2                  35          
1995-12-13 06   26.8   115.5                  30          
1995-12-13 12   27.4   117.4                  30          
1995-12-13 18   28.0   119.4                  25          
1995-12-14 00   28.6   121.4                  15          
Winds are 1-min average.

Tropical cyclone tracks developed by Michael Bath using data from the Joint Typhoon Warning Centre Best Tracks and Google Maps.


[Australian Severe Weather index] [Copyright Notice] [Email Contacts] [Search This Site] [Privacy Policy]
Document: tropical_cyclone_frank.htm Updated: 18 September 2016